createdAt,value
2022-09-06T00:07:33.881Z,4.03
2022-09-06T00:17:35.602Z,3.80
2022-09-06T00:27:37.161Z,4.13
2022-09-06T00:37:38.662Z,5.57
2022-09-06T00:47:42.594Z,4.60
2022-09-06T00:57:46.409Z,5.40
2022-09-06T01:08:17.283Z,5.50
2022-09-06T01:18:30.508Z,6.10
2022-09-06T01:28:35.071Z,7.07
2022-09-06T01:38:36.898Z,11.13
2022-09-06T01:48:56.478Z,11.23
2022-09-06T01:59:07.105Z,12.70
2022-09-06T02:09:16.960Z,14.53
2022-09-06T02:19:24.021Z,16.67
2022-09-06T02:29:25.658Z,19.50
2022-09-06T02:39:27.334Z,19.60
2022-09-06T02:49:30.133Z,28.80
2022-09-06T02:59:32.403Z,21.07
2022-09-06T03:09:34.121Z,20.23
2022-09-06T03:19:35.814Z,19.83
2022-09-06T03:29:37.574Z,22.00
2022-09-06T03:39:39.429Z,30.33
2022-09-06T03:49:40.950Z,29.27
2022-09-06T03:59:42.493Z,30.87
2022-09-06T04:09:43.969Z,28.13
2022-09-06T04:19:45.478Z,28.57
2022-09-06T04:29:46.949Z,32.00
2022-09-06T04:39:49.008Z,29.00
2022-09-06T04:49:50.656Z,27.37
2022-09-06T04:59:52.435Z,28.20
2022-09-06T05:09:53.922Z,27.80
2022-09-06T05:19:55.425Z,27.80
2022-09-06T05:29:56.977Z,31.27
2022-09-06T05:40:00.164Z,30.67
2022-09-06T05:50:03.423Z,28.70
2022-09-06T06:00:07.094Z,20.67
2022-09-06T06:10:12.955Z,19.17
2022-09-06T06:20:14.928Z,17.40
2022-09-06T06:30:18.410Z,17.73
2022-09-06T06:40:20.136Z,18.90
2022-09-06T06:50:21.606Z,10.27
2022-09-06T07:00:26.348Z,9.70
2022-09-06T07:10:32.898Z,7.90
2022-09-06T07:30:56.047Z,9.97
2022-09-06T07:41:00.289Z,10.10
2022-09-06T07:51:06.049Z,8.00
2022-09-06T08:01:31.189Z,6.65
2022-09-06T08:11:34.515Z,6.15
2022-09-06T08:21:36.226Z,9.13
2022-09-06T08:31:40.401Z,5.90
2022-09-06T08:42:07.046Z,4.60
2022-09-06T08:52:33.736Z,3.65
2022-09-06T09:03:17.198Z,4.05
2022-09-06T09:13:26.104Z,3.67
2022-09-06T09:23:29.526Z,3.50
2022-09-06T09:33:36.960Z,3.33
2022-09-06T09:43:41.298Z,3.10
2022-09-06T09:53:52.429Z,2.65
2022-09-06T10:14:42.769Z,2.10
2022-09-06T10:25:24.434Z,2.72
2022-09-06T10:35:32.161Z,4.00
2022-09-06T10:45:38.252Z,2.60
2022-09-06T10:55:42.390Z,2.80
2022-09-06T11:05:51.449Z,2.60
2022-09-06T11:16:04.570Z,3.17
2022-09-06T11:26:20.189Z,2.85
2022-09-06T11:36:36.366Z,4.07
2022-09-06T11:46:41.058Z,3.65
2022-09-06T11:56:54.713Z,4.50
2022-09-06T12:07:13.226Z,4.97
2022-09-06T12:17:20.659Z,3.50
2022-09-06T12:27:25.058Z,4.18
2022-09-06T12:37:37.520Z,4.13
2022-09-06T12:47:40.115Z,3.50
2022-09-06T12:57:48.571Z,4.53
2022-09-06T13:07:55.340Z,3.13
2022-09-06T13:18:27.251Z,3.03
2022-09-06T13:28:30.958Z,2.95
2022-09-06T13:38:33.946Z,3.00
2022-09-06T13:48:35.949Z,2.83
2022-09-06T13:58:38.235Z,3.10
2022-09-06T14:09:05.401Z,3.80
2022-09-06T14:19:02.004Z,3.33
2022-09-06T14:29:03.694Z,3.20
2022-09-06T14:39:05.553Z,3.38
2022-09-06T14:49:12.531Z,2.90
2022-09-06T14:59:14.361Z,3.40
2022-09-06T15:09:17.355Z,3.90
2022-09-06T15:19:22.868Z,3.47
2022-09-06T15:29:27.054Z,3.92
2022-09-06T15:39:28.588Z,4.15
2022-09-06T15:49:32.324Z,3.92
2022-09-06T15:59:33.802Z,4.45
2022-09-06T16:09:35.621Z,10.00
2022-09-06T16:19:37.150Z,9.52
2022-09-06T16:29:38.622Z,11.02
2022-09-06T16:39:40.246Z,15.97
2022-09-06T16:49:41.936Z,17.20
2022-09-06T16:59:43.665Z,16.40
2022-09-06T17:09:45.240Z,15.10
2022-09-06T17:19:47.094Z,5.13
2022-09-06T17:29:48.583Z,5.93
2022-09-06T17:39:50.196Z,5.27
2022-09-06T17:49:51.805Z,5.30
2022-09-06T17:59:53.441Z,5.70
2022-09-06T18:09:55.740Z,5.07
2022-09-06T18:19:57.712Z,7.20
2022-09-06T18:29:59.702Z,6.17
2022-09-06T18:40:01.493Z,6.27
2022-09-06T18:50:04.926Z,5.33
2022-09-06T19:00:07.737Z,6.40
2022-09-06T19:10:09.515Z,6.50
2022-09-06T19:20:12.089Z,6.43
2022-09-06T19:30:13.739Z,7.20
2022-09-06T19:40:15.443Z,8.47
2022-09-06T19:50:17.405Z,7.63
2022-09-06T20:00:19.007Z,7.27
2022-09-06T20:10:20.766Z,7.03
2022-09-06T20:20:22.763Z,9.27
2022-09-06T20:30:24.865Z,8.77
2022-09-06T20:40:26.725Z,5.90
2022-09-06T20:50:28.832Z,10.30
2022-09-06T21:00:30.509Z,9.77
2022-09-06T21:10:32.145Z,10.20
2022-09-06T21:20:34.059Z,18.57
2022-09-06T21:30:35.544Z,17.47
2022-09-06T21:40:37.434Z,27.03
2022-09-06T21:50:38.917Z,24.60
2022-09-06T22:00:41.296Z,19.40
2022-09-06T22:10:43.507Z,19.57
2022-09-06T22:20:45.361Z,18.83
2022-09-06T22:30:46.838Z,19.87
2022-09-06T22:40:48.333Z,16.10
2022-09-06T22:50:49.953Z,17.37
2022-09-06T23:00:51.607Z,14.63
2022-09-06T23:10:53.170Z,16.47
2022-09-06T23:20:54.670Z,18.27
2022-09-06T23:30:56.268Z,19.53
2022-09-06T23:40:57.825Z,19.63
2022-09-06T23:50:59.496Z,18.40
